sensor_id;sensor_type;location;lat;lon;timestamp;P1;durP1;ratioP1;P2;durP2;ratioP2
11048;SDS011;5577;42.706;23.160;2023-05-20T00:00:00;11.30;;;9.50;;
11048;SDS011;5577;42.706;23.160;2023-05-20T00:02:44;12.17;;;10.87;;
11048;SDS011;5577;42.706;23.160;2023-05-20T00:05:27;13.97;;;10.57;;
11048;SDS011;5577;42.706;23.160;2023-05-20T00:08:11;13.77;;;10.50;;
11048;SDS011;5577;42.706;23.160;2023-05-20T00:10:55;13.07;;;9.90;;
11048;SDS011;5577;42.706;23.160;2023-05-20T00:13:39;12.87;;;10.20;;
11048;SDS011;5577;42.706;23.160;2023-05-20T00:16:23;11.50;;;9.00;;
11048;SDS011;5577;42.706;23.160;2023-05-20T00:19:07;12.80;;;9.10;;
11048;SDS011;5577;42.706;23.160;2023-05-20T00:21:51;12.50;;;9.57;;
11048;SDS011;5577;42.706;23.160;2023-05-20T00:24:35;11.20;;;9.33;;
11048;SDS011;5577;42.706;23.160;2023-05-20T00:27:19;11.93;;;9.33;;
11048;SDS011;5577;42.706;23.160;2023-05-20T00:30:02;13.27;;;9.80;;
11048;SDS011;5577;42.706;23.160;2023-05-20T00:32:46;11.70;;;9.63;;
11048;SDS011;5577;42.706;23.160;2023-05-20T00:35:30;12.83;;;9.60;;
11048;SDS011;5577;42.706;23.160;2023-05-20T00:38:14;11.83;;;9.20;;
11048;SDS011;5577;42.706;23.160;2023-05-20T00:40:58;10.27;;;8.60;;
11048;SDS011;5577;42.706;23.160;2023-05-20T00:43:42;12.00;;;8.30;;
11048;SDS011;5577;42.706;23.160;2023-05-20T00:46:26;12.00;;;9.20;;
11048;SDS011;5577;42.706;23.160;2023-05-20T00:49:11;14.70;;;10.90;;
11048;SDS011;5577;42.706;23.160;2023-05-20T00:51:54;14.40;;;10.20;;
11048;SDS011;5577;42.706;23.160;2023-05-20T00:54:41;13.93;;;9.90;;
11048;SDS011;5577;42.706;23.160;2023-05-20T00:57:26;12.63;;;10.07;;
11048;SDS011;5577;42.706;23.160;2023-05-20T01:00:10;13.67;;;9.83;;
11048;SDS011;5577;42.706;23.160;2023-05-20T01:02:54;13.07;;;10.27;;
11048;SDS011;5577;42.706;23.160;2023-05-20T01:05:38;13.83;;;10.50;;
11048;SDS011;5577;42.706;23.160;2023-05-20T01:08:22;10.27;;;8.57;;
11048;SDS011;5577;42.706;23.160;2023-05-20T01:11:21;10.37;;;9.23;;
11048;SDS011;5577;42.706;23.160;2023-05-20T01:14:08;11.20;;;8.90;;
11048;SDS011;5577;42.706;23.160;2023-05-20T01:16:54;11.17;;;8.97;;
11048;SDS011;5577;42.706;23.160;2023-05-20T01:19:41;11.07;;;9.20;;
11048;SDS011;5577;42.706;23.160;2023-05-20T01:22:28;11.30;;;9.57;;
11048;SDS011;5577;42.706;23.160;2023-05-20T01:25:12;11.17;;;8.90;;
11048;SDS011;5577;42.706;23.160;2023-05-20T01:27:56;10.87;;;9.17;;
11048;SDS011;5577;42.706;23.160;2023-05-20T01:30:41;11.63;;;9.33;;
11048;SDS011;5577;42.706;23.160;2023-05-20T01:33:28;14.57;;;9.20;;
11048;SDS011;5577;42.706;23.160;2023-05-20T01:36:12;12.47;;;9.90;;
11048;SDS011;5577;42.706;23.160;2023-05-20T01:38:56;12.47;;;9.77;;
11048;SDS011;5577;42.706;23.160;2023-05-20T01:41:41;14.83;;;9.13;;
11048;SDS011;5577;42.706;23.160;2023-05-20T01:44:25;15.83;;;10.23;;
11048;SDS011;5577;42.706;23.160;2023-05-20T01:47:09;11.37;;;9.60;;
11048;SDS011;5577;42.706;23.160;2023-05-20T01:49:54;15.70;;;10.20;;
11048;SDS011;5577;42.706;23.160;2023-05-20T01:52:38;10.53;;;9.40;;
11048;SDS011;5577;42.706;23.160;2023-05-20T01:55:21;13.43;;;10.10;;
11048;SDS011;5577;42.706;23.160;2023-05-20T01:58:05;11.60;;;9.50;;
11048;SDS011;5577;42.706;23.160;2023-05-20T02:00:50;11.37;;;10.00;;
11048;SDS011;5577;42.706;23.160;2023-05-20T02:03:33;10.90;;;9.30;;
11048;SDS011;5577;42.706;23.160;2023-05-20T02:06:17;13.07;;;10.20;;
11048;SDS011;5577;42.706;23.160;2023-05-20T02:09:02;14.60;;;10.37;;
11048;SDS011;5577;42.706;23.160;2023-05-20T02:11:45;13.83;;;10.23;;
11048;SDS011;5577;42.706;23.160;2023-05-20T02:14:29;12.60;;;9.90;;
11048;SDS011;5577;42.706;23.160;2023-05-20T02:17:13;12.63;;;9.17;;
11048;SDS011;5577;42.706;23.160;2023-05-20T02:19:59;11.87;;;10.20;;
11048;SDS011;5577;42.706;23.160;2023-05-20T02:22:43;12.87;;;9.83;;
11048;SDS011;5577;42.706;23.160;2023-05-20T02:25:26;12.43;;;9.90;;
11048;SDS011;5577;42.706;23.160;2023-05-20T02:28:10;12.03;;;10.57;;
11048;SDS011;5577;42.706;23.160;2023-05-20T02:30:54;13.20;;;10.20;;
11048;SDS011;5577;42.706;23.160;2023-05-20T02:33:38;12.60;;;10.27;;
11048;SDS011;5577;42.706;23.160;2023-05-20T02:36:22;14.40;;;10.17;;
11048;SDS011;5577;42.706;23.160;2023-05-20T02:39:06;14.57;;;10.30;;
11048;SDS011;5577;42.706;23.160;2023-05-20T02:41:50;13.30;;;10.73;;
11048;SDS011;5577;42.706;23.160;2023-05-20T02:44:34;13.60;;;10.50;;
11048;SDS011;5577;42.706;23.160;2023-05-20T02:47:18;14.13;;;9.57;;
11048;SDS011;5577;42.706;23.160;2023-05-20T02:50:02;12.10;;;10.30;;
11048;SDS011;5577;42.706;23.160;2023-05-20T02:52:46;10.67;;;9.57;;
11048;SDS011;5577;42.706;23.160;2023-05-20T02:55:32;14.47;;;10.33;;
11048;SDS011;5577;42.706;23.160;2023-05-20T02:58:16;12.97;;;10.00;;
11048;SDS011;5577;42.706;23.160;2023-05-20T03:01:01;11.43;;;10.03;;
11048;SDS011;5577;42.706;23.160;2023-05-20T03:03:44;11.43;;;9.43;;
11048;SDS011;5577;42.706;23.160;2023-05-20T03:06:28;12.83;;;10.63;;
11048;SDS011;5577;42.706;23.160;2023-05-20T03:09:15;13.57;;;10.33;;
11048;SDS011;5577;42.706;23.160;2023-05-20T03:11:59;15.20;;;10.27;;
11048;SDS011;5577;42.706;23.160;2023-05-20T03:14:43;12.70;;;11.00;;
11048;SDS011;5577;42.706;23.160;2023-05-20T03:17:27;14.17;;;10.47;;
11048;SDS011;5577;42.706;23.160;2023-05-20T03:20:11;12.70;;;10.43;;
11048;SDS011;5577;42.706;23.160;2023-05-20T03:22:55;12.63;;;10.20;;
11048;SDS011;5577;42.706;23.160;2023-05-20T03:25:39;14.23;;;10.50;;
11048;SDS011;5577;42.706;23.160;2023-05-20T03:28:23;12.50;;;10.00;;
11048;SDS011;5577;42.706;23.160;2023-05-20T03:31:07;15.83;;;10.27;;
11048;SDS011;5577;42.706;23.160;2023-05-20T03:33:51;13.57;;;9.57;;
11048;SDS011;5577;42.706;23.160;2023-05-20T03:36:35;11.97;;;9.90;;
11048;SDS011;5577;42.706;23.160;2023-05-20T03:39:19;11.47;;;9.53;;
11048;SDS011;5577;42.706;23.160;2023-05-20T03:42:03;11.00;;;9.27;;
11048;SDS011;5577;42.706;23.160;2023-05-20T03:44:47;10.23;;;8.97;;
11048;SDS011;5577;42.706;23.160;2023-05-20T03:47:31;12.73;;;10.13;;
11048;SDS011;5577;42.706;23.160;2023-05-20T03:50:15;11.53;;;9.63;;
11048;SDS011;5577;42.706;23.160;2023-05-20T03:52:59;12.97;;;9.90;;
11048;SDS011;5577;42.706;23.160;2023-05-20T03:55:43;11.67;;;9.57;;
11048;SDS011;5577;42.706;23.160;2023-05-20T03:58:27;11.03;;;9.27;;
11048;SDS011;5577;42.706;23.160;2023-05-20T04:01:11;12.07;;;9.77;;
11048;SDS011;5577;42.706;23.160;2023-05-20T04:03:56;12.80;;;10.03;;
11048;SDS011;5577;42.706;23.160;2023-05-20T04:06:40;12.07;;;9.43;;
11048;SDS011;5577;42.706;23.160;2023-05-20T04:09:24;13.10;;;9.57;;
11048;SDS011;5577;42.706;23.160;2023-05-20T04:12:09;10.50;;;8.83;;
11048;SDS011;5577;42.706;23.160;2023-05-20T04:14:53;13.40;;;9.53;;
11048;SDS011;5577;42.706;23.160;2023-05-20T04:17:38;15.17;;;10.00;;
11048;SDS011;5577;42.706;23.160;2023-05-20T04:20:23;10.23;;;8.73;;
11048;SDS011;5577;42.706;23.160;2023-05-20T04:23:07;11.07;;;9.13;;
11048;SDS011;5577;42.706;23.160;2023-05-20T04:25:51;9.20;;;8.30;;
11048;SDS011;5577;42.706;23.160;2023-05-20T04:28:35;10.90;;;8.97;;
11048;SDS011;5577;42.706;23.160;2023-05-20T04:31:20;9.37;;;8.37;;
11048;SDS011;5577;42.706;23.160;2023-05-20T04:34:09;8.97;;;8.07;;
11048;SDS011;5577;42.706;23.160;2023-05-20T04:36:53;10.63;;;8.50;;
11048;SDS011;5577;42.706;23.160;2023-05-20T04:39:37;8.83;;;7.93;;
11048;SDS011;5577;42.706;23.160;2023-05-20T04:42:21;8.23;;;7.30;;
11048;SDS011;5577;42.706;23.160;2023-05-20T04:45:05;11.67;;;7.80;;
11048;SDS011;5577;42.706;23.160;2023-05-20T04:47:51;9.50;;;8.50;;
11048;SDS011;5577;42.706;23.160;2023-05-20T04:50:36;9.93;;;8.10;;
11048;SDS011;5577;42.706;23.160;2023-05-20T04:53:20;10.87;;;8.63;;
11048;SDS011;5577;42.706;23.160;2023-05-20T04:56:07;12.03;;;8.50;;
11048;SDS011;5577;42.706;23.160;2023-05-20T04:58:51;11.70;;;9.37;;
11048;SDS011;5577;42.706;23.160;2023-05-20T05:01:35;10.63;;;8.47;;
11048;SDS011;5577;42.706;23.160;2023-05-20T05:04:19;10.20;;;8.47;;
11048;SDS011;5577;42.706;23.160;2023-05-20T05:07:03;11.07;;;8.60;;
11048;SDS011;5577;42.706;23.160;2023-05-20T05:09:48;10.37;;;8.67;;
11048;SDS011;5577;42.706;23.160;2023-05-20T05:12:32;12.20;;;9.00;;
11048;SDS011;5577;42.706;23.160;2023-05-20T05:15:15;12.53;;;9.00;;
11048;SDS011;5577;42.706;23.160;2023-05-20T05:17:59;11.47;;;8.40;;
11048;SDS011;5577;42.706;23.160;2023-05-20T05:20:43;10.70;;;9.47;;
11048;SDS011;5577;42.706;23.160;2023-05-20T05:23:27;11.63;;;8.77;;
11048;SDS011;5577;42.706;23.160;2023-05-20T05:26:11;10.97;;;9.30;;
11048;SDS011;5577;42.706;23.160;2023-05-20T05:28:56;13.73;;;10.00;;
11048;SDS011;5577;42.706;23.160;2023-05-20T05:31:39;10.63;;;9.53;;
11048;SDS011;5577;42.706;23.160;2023-05-20T05:34:23;12.33;;;9.50;;
11048;SDS011;5577;42.706;23.160;2023-05-20T05:37:07;13.07;;;9.80;;
11048;SDS011;5577;42.706;23.160;2023-05-20T05:39:51;12.90;;;9.60;;
11048;SDS011;5577;42.706;23.160;2023-05-20T05:42:35;12.63;;;9.97;;
11048;SDS011;5577;42.706;23.160;2023-05-20T05:45:19;12.90;;;10.20;;
11048;SDS011;5577;42.706;23.160;2023-05-20T05:48:03;13.30;;;9.80;;
11048;SDS011;5577;42.706;23.160;2023-05-20T05:50:47;12.47;;;9.30;;
11048;SDS011;5577;42.706;23.160;2023-05-20T05:53:31;10.47;;;9.33;;
11048;SDS011;5577;42.706;23.160;2023-05-20T05:56:15;13.27;;;10.07;;
11048;SDS011;5577;42.706;23.160;2023-05-20T05:58:59;11.00;;;9.57;;
11048;SDS011;5577;42.706;23.160;2023-05-20T06:01:43;11.67;;;9.03;;
11048;SDS011;5577;42.706;23.160;2023-05-20T06:04:26;13.33;;;9.40;;
11048;SDS011;5577;42.706;23.160;2023-05-20T06:07:10;11.77;;;9.53;;
11048;SDS011;5577;42.706;23.160;2023-05-20T06:09:54;13.20;;;9.73;;
11048;SDS011;5577;42.706;23.160;2023-05-20T06:12:38;11.50;;;9.40;;
11048;SDS011;5577;42.706;23.160;2023-05-20T06:15:22;12.63;;;9.60;;
11048;SDS011;5577;42.706;23.160;2023-05-20T06:18:06;11.37;;;8.70;;
11048;SDS011;5577;42.706;23.160;2023-05-20T06:20:54;10.67;;;9.40;;
11048;SDS011;5577;42.706;23.160;2023-05-20T06:23:39;14.73;;;9.27;;
11048;SDS011;5577;42.706;23.160;2023-05-20T06:26:23;12.90;;;9.57;;
11048;SDS011;5577;42.706;23.160;2023-05-20T06:29:07;11.40;;;9.10;;
11048;SDS011;5577;42.706;23.160;2023-05-20T06:31:51;10.50;;;8.83;;
11048;SDS011;5577;42.706;23.160;2023-05-20T06:34:35;10.73;;;8.73;;
11048;SDS011;5577;42.706;23.160;2023-05-20T06:37:19;11.47;;;8.83;;
11048;SDS011;5577;42.706;23.160;2023-05-20T06:40:03;11.13;;;9.10;;
11048;SDS011;5577;42.706;23.160;2023-05-20T06:42:47;10.13;;;8.53;;
11048;SDS011;5577;42.706;23.160;2023-05-20T06:45:31;9.63;;;8.13;;
11048;SDS011;5577;42.706;23.160;2023-05-20T06:48:15;14.20;;;8.77;;
11048;SDS011;5577;42.706;23.160;2023-05-20T06:50:59;12.97;;;8.00;;
11048;SDS011;5577;42.706;23.160;2023-05-20T06:53:43;12.23;;;7.90;;
11048;SDS011;5577;42.706;23.160;2023-05-20T06:56:27;11.73;;;8.70;;
11048;SDS011;5577;42.706;23.160;2023-05-20T06:59:11;11.53;;;8.33;;
11048;SDS011;5577;42.706;23.160;2023-05-20T07:01:55;13.60;;;8.70;;
11048;SDS011;5577;42.706;23.160;2023-05-20T07:04:39;12.53;;;8.80;;
11048;SDS011;5577;42.706;23.160;2023-05-20T07:07:23;12.97;;;8.70;;
11048;SDS011;5577;42.706;23.160;2023-05-20T07:10:07;10.10;;;8.07;;
11048;SDS011;5577;42.706;23.160;2023-05-20T07:12:51;10.13;;;8.43;;
11048;SDS011;5577;42.706;23.160;2023-05-20T07:15:35;11.83;;;9.10;;
11048;SDS011;5577;42.706;23.160;2023-05-20T07:18:18;10.80;;;8.43;;
11048;SDS011;5577;42.706;23.160;2023-05-20T07:21:04;12.87;;;8.20;;
11048;SDS011;5577;42.706;23.160;2023-05-20T07:23:48;10.47;;;8.23;;
11048;SDS011;5577;42.706;23.160;2023-05-20T07:26:32;11.77;;;8.67;;
11048;SDS011;5577;42.706;23.160;2023-05-20T07:29:18;11.30;;;8.50;;
11048;SDS011;5577;42.706;23.160;2023-05-20T07:32:02;10.17;;;7.70;;
11048;SDS011;5577;42.706;23.160;2023-05-20T07:34:46;11.17;;;8.53;;
11048;SDS011;5577;42.706;23.160;2023-05-20T07:37:30;9.67;;;7.47;;
11048;SDS011;5577;42.706;23.160;2023-05-20T07:40:14;10.03;;;7.87;;
11048;SDS011;5577;42.706;23.160;2023-05-20T07:42:59;9.47;;;8.00;;
11048;SDS011;5577;42.706;23.160;2023-05-20T07:45:43;12.60;;;7.90;;
11048;SDS011;5577;42.706;23.160;2023-05-20T07:48:26;8.23;;;7.37;;
11048;SDS011;5577;42.706;23.160;2023-05-20T07:51:10;8.23;;;7.37;;
11048;SDS011;5577;42.706;23.160;2023-05-20T07:53:54;8.40;;;7.00;;
11048;SDS011;5577;42.706;23.160;2023-05-20T07:56:38;10.80;;;7.70;;
11048;SDS011;5577;42.706;23.160;2023-05-20T07:59:22;8.43;;;7.50;;
11048;SDS011;5577;42.706;23.160;2023-05-20T08:02:07;8.83;;;7.13;;
11048;SDS011;5577;42.706;23.160;2023-05-20T08:04:50;8.53;;;7.30;;
11048;SDS011;5577;42.706;23.160;2023-05-20T08:07:35;8.33;;;6.83;;
11048;SDS011;5577;42.706;23.160;2023-05-20T08:10:19;7.57;;;6.87;;
11048;SDS011;5577;42.706;23.160;2023-05-20T08:13:03;9.83;;;7.50;;
11048;SDS011;5577;42.706;23.160;2023-05-20T08:15:47;9.70;;;7.07;;
11048;SDS011;5577;42.706;23.160;2023-05-20T08:18:31;7.73;;;6.90;;
11048;SDS011;5577;42.706;23.160;2023-05-20T08:21:16;10.60;;;7.27;;
11048;SDS011;5577;42.706;23.160;2023-05-20T08:24:00;9.07;;;7.30;;
11048;SDS011;5577;42.706;23.160;2023-05-20T08:26:44;10.10;;;7.90;;
11048;SDS011;5577;42.706;23.160;2023-05-20T08:29:27;10.37;;;7.00;;
11048;SDS011;5577;42.706;23.160;2023-05-20T08:32:11;10.40;;;7.67;;
11048;SDS011;5577;42.706;23.160;2023-05-20T08:34:55;11.53;;;7.17;;
11048;SDS011;5577;42.706;23.160;2023-05-20T08:37:39;8.63;;;7.30;;
11048;SDS011;5577;42.706;23.160;2023-05-20T08:40:23;10.47;;;7.40;;
11048;SDS011;5577;42.706;23.160;2023-05-20T08:43:07;11.13;;;7.57;;
11048;SDS011;5577;42.706;23.160;2023-05-20T08:45:51;10.60;;;7.83;;
11048;SDS011;5577;42.706;23.160;2023-05-20T08:48:35;7.87;;;7.07;;
11048;SDS011;5577;42.706;23.160;2023-05-20T08:51:19;8.07;;;6.97;;
11048;SDS011;5577;42.706;23.160;2023-05-20T08:54:05;11.37;;;7.30;;
11048;SDS011;5577;42.706;23.160;2023-05-20T08:56:49;9.93;;;6.97;;
11048;SDS011;5577;42.706;23.160;2023-05-20T08:59:33;8.50;;;7.47;;
11048;SDS011;5577;42.706;23.160;2023-05-20T09:02:17;8.40;;;6.50;;
11048;SDS011;5577;42.706;23.160;2023-05-20T09:05:01;7.93;;;6.90;;
11048;SDS011;5577;42.706;23.160;2023-05-20T09:07:47;8.23;;;6.60;;
11048;SDS011;5577;42.706;23.160;2023-05-20T09:10:31;8.00;;;6.77;;
11048;SDS011;5577;42.706;23.160;2023-05-20T09:13:16;9.57;;;6.87;;
11048;SDS011;5577;42.706;23.160;2023-05-20T09:16:00;8.93;;;7.30;;
11048;SDS011;5577;42.706;23.160;2023-05-20T09:18:45;8.50;;;7.33;;
11048;SDS011;5577;42.706;23.160;2023-05-20T09:21:28;7.43;;;6.73;;
11048;SDS011;5577;42.706;23.160;2023-05-20T09:24:12;9.97;;;6.80;;
11048;SDS011;5577;42.706;23.160;2023-05-20T09:26:56;8.73;;;6.90;;
11048;SDS011;5577;42.706;23.160;2023-05-20T09:29:41;8.13;;;5.87;;
11048;SDS011;5577;42.706;23.160;2023-05-20T09:32:26;7.50;;;6.80;;
11048;SDS011;5577;42.706;23.160;2023-05-20T09:35:11;7.50;;;6.50;;
11048;SDS011;5577;42.706;23.160;2023-05-20T09:37:56;9.87;;;6.90;;
11048;SDS011;5577;42.706;23.160;2023-05-20T09:40:40;7.73;;;7.00;;
11048;SDS011;5577;42.706;23.160;2023-05-20T09:43:25;7.27;;;6.40;;
11048;SDS011;5577;42.706;23.160;2023-05-20T09:46:09;7.77;;;6.20;;
11048;SDS011;5577;42.706;23.160;2023-05-20T09:48:53;9.43;;;6.77;;
11048;SDS011;5577;42.706;23.160;2023-05-20T09:51:37;7.87;;;7.07;;
11048;SDS011;5577;42.706;23.160;2023-05-20T09:54:22;9.30;;;6.87;;
11048;SDS011;5577;42.706;23.160;2023-05-20T09:57:08;7.53;;;6.73;;
11048;SDS011;5577;42.706;23.160;2023-05-20T09:59:52;8.77;;;7.17;;
11048;SDS011;5577;42.706;23.160;2023-05-20T10:02:36;20.33;;;16.47;;
11048;SDS011;5577;42.706;23.160;2023-05-20T10:05:21;7.80;;;6.53;;
11048;SDS011;5577;42.706;23.160;2023-05-20T10:08:13;8.87;;;7.00;;
11048;SDS011;5577;42.706;23.160;2023-05-20T10:17:09;9.33;;;6.93;;
11048;SDS011;5577;42.706;23.160;2023-05-20T10:19:58;13.70;;;12.40;;
11048;SDS011;5577;42.706;23.160;2023-05-20T10:22:43;9.43;;;8.43;;
11048;SDS011;5577;42.706;23.160;2023-05-20T10:25:37;6.90;;;6.13;;
11048;SDS011;5577;42.706;23.160;2023-05-20T10:28:28;6.63;;;6.03;;
11048;SDS011;5577;42.706;23.160;2023-05-20T10:31:20;7.53;;;5.90;;
11048;SDS011;5577;42.706;23.160;2023-05-20T10:34:04;7.97;;;6.30;;
11048;SDS011;5577;42.706;23.160;2023-05-20T10:36:57;7.70;;;6.90;;
11048;SDS011;5577;42.706;23.160;2023-05-20T10:39:42;6.53;;;5.67;;
11048;SDS011;5577;42.706;23.160;2023-05-20T10:42:26;8.23;;;7.53;;
11048;SDS011;5577;42.706;23.160;2023-05-20T10:45:10;8.40;;;6.20;;
11048;SDS011;5577;42.706;23.160;2023-05-20T10:47:55;6.83;;;5.80;;
11048;SDS011;5577;42.706;23.160;2023-05-20T10:50:39;6.90;;;5.30;;
11048;SDS011;5577;42.706;23.160;2023-05-20T10:53:23;7.00;;;5.20;;
11048;SDS011;5577;42.706;23.160;2023-05-20T10:56:18;8.47;;;6.20;;
11048;SDS011;5577;42.706;23.160;2023-05-20T10:59:02;10.83;;;5.77;;
11048;SDS011;5577;42.706;23.160;2023-05-20T11:01:47;5.77;;;5.20;;
11048;SDS011;5577;42.706;23.160;2023-05-20T11:04:31;6.57;;;5.60;;
11048;SDS011;5577;42.706;23.160;2023-05-20T11:07:25;6.67;;;5.83;;
11048;SDS011;5577;42.706;23.160;2023-05-20T11:10:10;6.53;;;5.93;;
11048;SDS011;5577;42.706;23.160;2023-05-20T11:12:55;7.10;;;5.77;;
11048;SDS011;5577;42.706;23.160;2023-05-20T11:15:38;6.33;;;5.80;;
11048;SDS011;5577;42.706;23.160;2023-05-20T11:18:22;8.90;;;6.20;;
11048;SDS011;5577;42.706;23.160;2023-05-20T11:21:06;7.77;;;5.83;;
11048;SDS011;5577;42.706;23.160;2023-05-20T11:23:50;6.73;;;6.07;;
11048;SDS011;5577;42.706;23.160;2023-05-20T11:26:35;10.03;;;6.63;;
11048;SDS011;5577;42.706;23.160;2023-05-20T11:29:19;7.33;;;6.40;;
11048;SDS011;5577;42.706;23.160;2023-05-20T11:32:04;8.67;;;6.50;;
11048;SDS011;5577;42.706;23.160;2023-05-20T11:34:49;8.73;;;6.60;;
11048;SDS011;5577;42.706;23.160;2023-05-20T11:37:34;8.60;;;6.23;;
11048;SDS011;5577;42.706;23.160;2023-05-20T11:40:22;5.80;;;5.30;;
11048;SDS011;5577;42.706;23.160;2023-05-20T11:43:06;7.03;;;6.10;;
11048;SDS011;5577;42.706;23.160;2023-05-20T11:45:53;7.90;;;5.33;;
11048;SDS011;5577;42.706;23.160;2023-05-20T11:48:37;7.47;;;5.40;;
11048;SDS011;5577;42.706;23.160;2023-05-20T11:51:28;7.97;;;5.90;;
11048;SDS011;5577;42.706;23.160;2023-05-20T11:54:12;11.27;;;6.03;;
11048;SDS011;5577;42.706;23.160;2023-05-20T11:56:56;7.00;;;6.17;;
11048;SDS011;5577;42.706;23.160;2023-05-20T11:59:42;6.03;;;5.43;;
11048;SDS011;5577;42.706;23.160;2023-05-20T12:02:26;8.13;;;5.53;;
11048;SDS011;5577;42.706;23.160;2023-05-20T12:05:10;6.73;;;5.67;;
11048;SDS011;5577;42.706;23.160;2023-05-20T12:07:55;13.70;;;10.47;;
11048;SDS011;5577;42.706;23.160;2023-05-20T12:10:39;8.10;;;6.60;;
11048;SDS011;5577;42.706;23.160;2023-05-20T12:13:23;12.03;;;9.37;;
11048;SDS011;5577;42.706;23.160;2023-05-20T12:16:07;9.07;;;8.10;;
11048;SDS011;5577;42.706;23.160;2023-05-20T12:18:51;6.10;;;5.50;;
11048;SDS011;5577;42.706;23.160;2023-05-20T12:21:35;7.83;;;5.87;;
11048;SDS011;5577;42.706;23.160;2023-05-20T12:24:18;7.53;;;6.43;;
11048;SDS011;5577;42.706;23.160;2023-05-20T12:27:02;7.10;;;5.67;;
11048;SDS011;5577;42.706;23.160;2023-05-20T12:29:46;7.27;;;5.70;;
11048;SDS011;5577;42.706;23.160;2023-05-20T12:32:30;7.50;;;5.90;;
11048;SDS011;5577;42.706;23.160;2023-05-20T12:35:14;6.37;;;5.77;;
11048;SDS011;5577;42.706;23.160;2023-05-20T12:37:58;7.73;;;6.00;;
11048;SDS011;5577;42.706;23.160;2023-05-20T12:40:42;7.67;;;6.20;;
11048;SDS011;5577;42.706;23.160;2023-05-20T12:43:26;7.77;;;6.37;;
11048;SDS011;5577;42.706;23.160;2023-05-20T12:46:10;7.97;;;6.27;;
11048;SDS011;5577;42.706;23.160;2023-05-20T12:48:54;7.33;;;6.53;;
11048;SDS011;5577;42.706;23.160;2023-05-20T12:51:38;9.10;;;5.63;;
11048;SDS011;5577;42.706;23.160;2023-05-20T12:54:22;9.83;;;6.10;;
11048;SDS011;5577;42.706;23.160;2023-05-20T12:57:10;7.30;;;4.27;;
11048;SDS011;5577;42.706;23.160;2023-05-20T12:59:54;6.10;;;4.50;;
11048;SDS011;5577;42.706;23.160;2023-05-20T13:02:40;5.97;;;4.53;;
11048;SDS011;5577;42.706;23.160;2023-05-20T13:05:24;5.00;;;4.50;;
11048;SDS011;5577;42.706;23.160;2023-05-20T13:08:08;4.90;;;4.40;;
11048;SDS011;5577;42.706;23.160;2023-05-20T13:10:53;7.93;;;4.37;;
11048;SDS011;5577;42.706;23.160;2023-05-20T13:13:37;4.63;;;4.10;;
11048;SDS011;5577;42.706;23.160;2023-05-20T13:16:21;5.20;;;4.70;;
11048;SDS011;5577;42.706;23.160;2023-05-20T13:19:05;4.77;;;3.57;;
11048;SDS011;5577;42.706;23.160;2023-05-20T13:21:50;5.77;;;3.70;;
11048;SDS011;5577;42.706;23.160;2023-05-20T13:24:34;5.03;;;3.50;;
11048;SDS011;5577;42.706;23.160;2023-05-20T13:27:18;5.00;;;3.33;;
11048;SDS011;5577;42.706;23.160;2023-05-20T13:30:02;3.70;;;3.40;;
11048;SDS011;5577;42.706;23.160;2023-05-20T13:32:46;3.87;;;3.57;;
11048;SDS011;5577;42.706;23.160;2023-05-20T13:35:30;4.60;;;3.40;;
11048;SDS011;5577;42.706;23.160;2023-05-20T13:38:14;5.63;;;3.83;;
11048;SDS011;5577;42.706;23.160;2023-05-20T13:40:58;4.60;;;4.20;;
11048;SDS011;5577;42.706;23.160;2023-05-20T13:43:43;4.93;;;4.20;;
11048;SDS011;5577;42.706;23.160;2023-05-20T13:46:27;4.67;;;4.20;;
11048;SDS011;5577;42.706;23.160;2023-05-20T13:49:11;4.67;;;4.17;;
11048;SDS011;5577;42.706;23.160;2023-05-20T13:51:55;5.17;;;4.13;;
11048;SDS011;5577;42.706;23.160;2023-05-20T13:54:39;5.37;;;4.80;;
11048;SDS011;5577;42.706;23.160;2023-05-20T13:57:25;5.20;;;4.57;;
11048;SDS011;5577;42.706;23.160;2023-05-20T14:00:09;5.43;;;4.40;;
11048;SDS011;5577;42.706;23.160;2023-05-20T14:02:53;4.77;;;4.27;;
11048;SDS011;5577;42.706;23.160;2023-05-20T14:05:37;6.30;;;4.40;;
11048;SDS011;5577;42.706;23.160;2023-05-20T14:08:21;5.63;;;5.13;;
11048;SDS011;5577;42.706;23.160;2023-05-20T14:11:05;7.13;;;4.70;;
11048;SDS011;5577;42.706;23.160;2023-05-20T14:13:49;9.97;;;7.30;;
11048;SDS011;5577;42.706;23.160;2023-05-20T14:16:33;12.03;;;8.20;;
11048;SDS011;5577;42.706;23.160;2023-05-20T14:19:17;7.07;;;5.50;;
11048;SDS011;5577;42.706;23.160;2023-05-20T14:22:01;8.30;;;5.77;;
11048;SDS011;5577;42.706;23.160;2023-05-20T14:24:45;5.27;;;4.63;;
11048;SDS011;5577;42.706;23.160;2023-05-20T14:27:29;6.17;;;5.63;;
11048;SDS011;5577;42.706;23.160;2023-05-20T14:30:13;5.47;;;4.87;;
11048;SDS011;5577;42.706;23.160;2023-05-20T14:32:57;6.27;;;5.50;;
11048;SDS011;5577;42.706;23.160;2023-05-20T14:35:41;7.27;;;4.67;;
11048;SDS011;5577;42.706;23.160;2023-05-20T14:38:25;6.17;;;5.20;;
11048;SDS011;5577;42.706;23.160;2023-05-20T14:41:09;7.47;;;5.60;;
11048;SDS011;5577;42.706;23.160;2023-05-20T14:43:53;6.70;;;6.10;;
11048;SDS011;5577;42.706;23.160;2023-05-20T14:46:37;7.27;;;6.00;;
11048;SDS011;5577;42.706;23.160;2023-05-20T14:49:21;5.67;;;5.17;;
11048;SDS011;5577;42.706;23.160;2023-05-20T14:52:05;6.53;;;4.60;;
11048;SDS011;5577;42.706;23.160;2023-05-20T14:54:50;7.27;;;6.40;;
11048;SDS011;5577;42.706;23.160;2023-05-20T14:57:33;6.80;;;6.00;;
11048;SDS011;5577;42.706;23.160;2023-05-20T15:00:17;6.83;;;6.23;;
11048;SDS011;5577;42.706;23.160;2023-05-20T15:03:01;6.30;;;5.70;;
11048;SDS011;5577;42.706;23.160;2023-05-20T15:05:45;6.90;;;5.90;;
11048;SDS011;5577;42.706;23.160;2023-05-20T15:08:29;6.93;;;6.23;;
11048;SDS011;5577;42.706;23.160;2023-05-20T15:11:13;7.53;;;6.33;;
11048;SDS011;5577;42.706;23.160;2023-05-20T15:13:57;9.03;;;6.80;;
11048;SDS011;5577;42.706;23.160;2023-05-20T15:16:41;6.37;;;5.77;;
11048;SDS011;5577;42.706;23.160;2023-05-20T15:19:26;8.00;;;6.97;;
11048;SDS011;5577;42.706;23.160;2023-05-20T15:22:10;6.80;;;6.10;;
11048;SDS011;5577;42.706;23.160;2023-05-20T15:24:54;6.60;;;5.83;;
11048;SDS011;5577;42.706;23.160;2023-05-20T15:27:41;9.33;;;6.87;;
11048;SDS011;5577;42.706;23.160;2023-05-20T15:30:25;7.10;;;6.13;;
11048;SDS011;5577;42.706;23.160;2023-05-20T15:33:09;9.20;;;5.90;;
11048;SDS011;5577;42.706;23.160;2023-05-20T15:35:53;8.17;;;5.87;;
11048;SDS011;5577;42.706;23.160;2023-05-20T15:38:37;7.37;;;6.57;;
11048;SDS011;5577;42.706;23.160;2023-05-20T15:41:21;7.13;;;6.33;;
11048;SDS011;5577;42.706;23.160;2023-05-20T15:44:05;7.10;;;6.40;;
11048;SDS011;5577;42.706;23.160;2023-05-20T15:46:49;12.10;;;7.10;;
11048;SDS011;5577;42.706;23.160;2023-05-20T15:49:33;8.30;;;6.73;;
11048;SDS011;5577;42.706;23.160;2023-05-20T15:52:17;7.43;;;6.40;;
11048;SDS011;5577;42.706;23.160;2023-05-20T15:55:01;8.73;;;6.67;;
11048;SDS011;5577;42.706;23.160;2023-05-20T15:57:45;7.13;;;6.43;;
11048;SDS011;5577;42.706;23.160;2023-05-20T16:00:29;7.47;;;6.50;;
11048;SDS011;5577;42.706;23.160;2023-05-20T16:03:13;9.97;;;6.73;;
11048;SDS011;5577;42.706;23.160;2023-05-20T16:05:56;9.00;;;6.93;;
11048;SDS011;5577;42.706;23.160;2023-05-20T16:08:40;8.73;;;6.50;;
11048;SDS011;5577;42.706;23.160;2023-05-20T16:11:24;8.47;;;7.00;;
11048;SDS011;5577;42.706;23.160;2023-05-20T16:14:09;8.60;;;6.73;;
11048;SDS011;5577;42.706;23.160;2023-05-20T16:16:53;7.73;;;6.70;;
11048;SDS011;5577;42.706;23.160;2023-05-20T16:19:37;9.00;;;6.60;;
11048;SDS011;5577;42.706;23.160;2023-05-20T16:22:21;7.60;;;6.80;;
11048;SDS011;5577;42.706;23.160;2023-05-20T16:25:05;7.67;;;6.20;;